Time;durP1;ratioP1;P1;durP2;ratioP2;P2;SDS_P1;SDS_P2;PMS_P1;PMS_P2;Temp;Humidity;BMP_temperature;BMP_pressure;BME280_temperature;BME280_humidity;BME280_pressure;Samples;Min_cycle;Max_cycle;Signal;HPM_P1;HPM_P2
2023/12/19 00:00:28;;;;;;;;;23.33;21.33;;;;;;;;5081810;27;45354;-82
2023/12/19 00:02:54;;;;;;;;;23.00;22.00;;;;;;;;5081813;27;45397;-82
2023/12/19 00:05:19;;;;;;;;;26.67;24.67;;;;;;;;5081086;27;45355;-82
2023/12/19 00:07:45;;;;;;;;;21.00;14.67;;;;;;;;5081769;27;45167;-82
2023/12/19 00:10:11;;;;;;;;;21.67;21.67;;;;;;;;5081445;27;47102;-82
2023/12/19 00:12:37;;;;;;;;;23.67;20.33;;;;;;;;5081848;27;45243;-83
2023/12/19 00:15:02;;;;;;;;;26.33;24.00;;;;;;;;5080127;28;45360;-81
2023/12/19 00:17:27;;;;;;;;;23.00;21.67;;;;;;;;5080019;28;46036;-82
2023/12/19 00:19:53;;;;;;;;;24.00;22.67;;;;;;;;5079848;28;47094;-83
2023/12/19 00:22:21;;;;;;;;;21.00;19.00;;;;;;;;5097051;27;45287;-82
2023/12/19 00:24:46;;;;;;;;;22.67;22.67;;;;;;;;5097129;27;45247;-82
2023/12/19 00:27:16;;;;;;;;;23.33;23.33;;;;;;;;5080191;27;45554;-82
2023/12/19 00:29:42;;;;;;;;;26.00;23.67;;;;;;;;5096034;27;46225;-82
2023/12/19 00:32:07;;;;;;;;;25.67;21.67;;;;;;;;5079679;28;45311;-82
2023/12/19 00:34:32;;;;;;;;;30.00;26.00;;;;;;;;5097204;27;45309;-81
2023/12/19 00:36:57;;;;;;;;;25.33;20.33;;;;;;;;5079683;28;47286;-82
2023/12/19 00:39:23;;;;;;;;;26.00;22.33;;;;;;;;5096855;27;47139;-82
2023/12/19 00:41:50;;;;;;;;;24.67;24.33;;;;;;;;5081002;28;45344;-83
2023/12/19 00:44:15;;;;;;;;;25.00;23.33;;;;;;;;5096585;27;45306;-82
2023/12/19 00:46:43;;;;;;;;;28.33;24.33;;;;;;;;5081219;27;45321;-83
2023/12/19 00:49:09;;;;;;;;;25.33;21.00;;;;;;;;5084245;27;47645;-83
2023/12/19 00:51:34;;;;;;;;;21.67;21.67;;;;;;;;5096226;27;45327;-82
2023/12/19 00:53:59;;;;;;;;;29.00;24.67;;;;;;;;5101533;27;45385;-82
2023/12/19 00:56:24;;;;;;;;;20.33;19.67;;;;;;;;5068298;27;46956;-83
2023/12/19 00:58:52;;;;;;;;;30.00;25.33;;;;;;;;5079109;28;46797;-83
2023/12/19 01:01:21;;;;;;;;;21.33;20.00;;;;;;;;5095648;27;45977;-82
2023/12/19 01:03:47;;;;;;;;;24.33;21.00;;;;;;;;5096105;27;45532;-83
2023/12/19 01:06:12;;;;;;;;;17.67;16.67;;;;;;;;5096570;27;47455;-82
2023/12/19 01:08:37;;;;;;;;;26.67;22.00;;;;;;;;5080662;27;46106;-83
2023/12/19 01:11:03;;;;;;;;;28.00;21.33;;;;;;;;5096377;27;45354;-83
2023/12/19 01:13:28;;;;;;;;;25.33;23.33;;;;;;;;5080945;27;45311;-82
2023/12/19 01:15:53;;;;;;;;;26.33;20.67;;;;;;;;5079041;28;46328;-82
2023/12/19 01:18:19;;;;;;;;;20.00;20.00;;;;;;;;5096292;27;47959;-82
2023/12/19 01:20:45;;;;;;;;;25.00;21.33;;;;;;;;5096128;27;45391;-81
2023/12/19 01:23:11;;;;;;;;;26.00;25.67;;;;;;;;5097315;27;45329;-83
2023/12/19 01:25:37;;;;;;;;;24.33;23.00;;;;;;;;5095952;27;47067;-82
2023/12/19 01:28:03;;;;;;;;;26.00;21.00;;;;;;;;5095932;27;45757;-82
2023/12/19 01:30:28;;;;;;;;;25.67;23.00;;;;;;;;5078910;28;45618;-83
2023/12/19 01:32:53;;;;;;;;;31.00;28.33;;;;;;;;5096289;27;45290;-83
2023/12/19 01:35:19;;;;;;;;;21.67;20.00;;;;;;;;5078907;28;45914;-82
2023/12/19 01:37:44;;;;;;;;;26.33;25.67;;;;;;;;5094134;27;46134;-83
2023/12/19 01:40:09;;;;;;;;;26.00;25.00;;;;;;;;5078590;28;45352;-82
2023/12/19 01:42:34;;;;;;;;;27.33;24.00;;;;;;;;5061553;28;45769;-82
2023/12/19 01:45:08;;;;;;;;;28.00;24.00;;;;;;;;5078981;28;45676;-82
2023/12/19 01:47:33;;;;;;;;;26.33;23.33;;;;;;;;5079724;28;46458;-82
2023/12/19 01:49:58;;;;;;;;;23.67;23.67;;;;;;;;5079831;28;45316;-82
2023/12/19 01:52:23;;;;;;;;;22.00;21.00;;;;;;;;5079627;28;45259;-82
2023/12/19 01:54:55;;;;;;;;;30.67;21.33;;;;;;;;5077596;28;47188;-82
2023/12/19 01:57:20;;;;;;;;;30.33;25.67;;;;;;;;5081959;27;47309;-82
2023/12/19 01:59:45;;;;;;;;;24.67;21.67;;;;;;;;5080001;28;45144;-83
2023/12/19 02:02:10;;;;;;;;;25.00;22.67;;;;;;;;5080123;28;45199;-82
2023/12/19 02:04:35;;;;;;;;;35.67;29.67;;;;;;;;5095419;27;46901;-83
2023/12/19 02:07:01;;;;;;;;;23.33;21.00;;;;;;;;5079825;28;46216;-83
2023/12/19 02:09:26;;;;;;;;;27.00;23.00;;;;;;;;5095308;27;45254;-82
2023/12/19 02:11:51;;;;;;;;;24.67;22.00;;;;;;;;5095777;27;45286;-83
2023/12/19 02:14:17;;;;;;;;;26.33;23.33;;;;;;;;5079730;28;45252;-82
2023/12/19 02:16:42;;;;;;;;;26.67;23.00;;;;;;;;5095204;27;46888;-82
2023/12/19 02:19:07;;;;;;;;;24.00;21.00;;;;;;;;5078344;28;45276;-82
2023/12/19 02:21:34;;;;;;;;;26.67;24.67;;;;;;;;5079877;28;45227;-82
2023/12/19 02:24:00;;;;;;;;;29.00;26.33;;;;;;;;5079689;27;45326;-82
2023/12/19 02:26:25;;;;;;;;;20.33;18.33;;;;;;;;5094952;27;47449;-82
2023/12/19 02:28:58;;;;;;;;;25.67;22.00;;;;;;;;5079706;27;45311;-82
2023/12/19 02:31:23;;;;;;;;;22.33;19.33;;;;;;;;5095343;27;45282;-82
2023/12/19 02:33:48;;;;;;;;;31.00;26.33;;;;;;;;5079326;28;45514;-81
2023/12/19 02:36:15;;;;;;;;;25.67;20.00;;;;;;;;5077423;28;45628;-82
2023/12/19 02:38:40;;;;;;;;;19.33;18.33;;;;;;;;5079448;27;45439;-82
2023/12/19 02:41:07;;;;;;;;;24.33;23.33;;;;;;;;5078060;28;45308;-82
2023/12/19 02:43:34;;;;;;;;;28.33;23.33;;;;;;;;5095136;27;47040;-82
2023/12/19 02:45:59;;;;;;;;;27.00;23.00;;;;;;;;5077835;28;47140;-82
2023/12/19 02:48:24;;;;;;;;;24.33;22.00;;;;;;;;5094942;27;45244;-82
2023/12/19 02:50:52;;;;;;;;;22.67;22.00;;;;;;;;5079370;27;45397;-82
2023/12/19 02:53:20;;;;;;;;;26.67;24.00;;;;;;;;5062055;28;46323;-82
2023/12/19 02:55:45;;;;;;;;;23.33;22.00;;;;;;;;5077340;28;45749;-82
2023/12/19 02:58:10;;;;;;;;;30.67;27.00;;;;;;;;5078878;28;45452;-82
2023/12/19 03:00:36;;;;;;;;;30.67;27.67;;;;;;;;5060969;28;45610;-81
2023/12/19 03:03:01;;;;;;;;;23.33;22.67;;;;;;;;5079077;28;45548;-83
2023/12/19 03:05:26;;;;;;;;;29.67;24.00;;;;;;;;5078906;28;46414;-82
2023/12/19 03:07:51;;;;;;;;;23.00;22.00;;;;;;;;5081073;28;45386;-83
2023/12/19 03:10:16;;;;;;;;;25.00;22.00;;;;;;;;5082652;28;45437;-83
2023/12/19 03:12:42;;;;;;;;;27.67;25.67;;;;;;;;5081066;28;46004;-82
2023/12/19 03:15:07;;;;;;;;;23.67;22.00;;;;;;;;5082398;28;45323;-82
2023/12/19 03:17:32;;;;;;;;;20.33;20.00;;;;;;;;5082466;28;45371;-83
2023/12/19 03:19:57;;;;;;;;;22.67;21.33;;;;;;;;5082490;28;45314;-81
2023/12/19 03:22:23;;;;;;;;;22.67;21.67;;;;;;;;5082214;28;45276;-82
2023/12/19 03:24:48;;;;;;;;;23.67;22.00;;;;;;;;5080833;28;47836;-82
2023/12/19 03:27:13;;;;;;;;;23.33;22.67;;;;;;;;5082360;28;45284;-81
2023/12/19 03:29:38;;;;;;;;;26.67;23.67;;;;;;;;5047504;28;45588;-82
2023/12/19 03:32:04;;;;;;;;;31.33;25.00;;;;;;;;5080723;28;46001;-83
2023/12/19 03:34:30;;;;;;;;;30.67;29.33;;;;;;;;5082023;28;45549;-82
2023/12/19 03:36:56;;;;;;;;;37.00;35.67;;;;;;;;5082090;28;45227;-82
2023/12/19 03:39:21;;;;;;;;;32.67;31.67;;;;;;;;5081952;28;45280;-82
2023/12/19 03:41:47;;;;;;;;;34.67;28.67;;;;;;;;5081965;28;45308;-82
2023/12/19 03:44:12;;;;;;;;;24.33;21.67;;;;;;;;5063450;28;47509;-82
2023/12/19 03:46:37;;;;;;;;;22.00;19.67;;;;;;;;5081490;28;45277;-81
2023/12/19 03:49:02;;;;;;;;;28.33;25.33;;;;;;;;5080549;28;45343;-82
2023/12/19 03:51:27;;;;;;;;;25.67;19.33;;;;;;;;5080651;28;45667;-82
2023/12/19 03:53:53;;;;;;;;;25.67;22.00;;;;;;;;5080323;28;48165;-82
2023/12/19 03:56:18;;;;;;;;;24.00;23.67;;;;;;;;5080409;28;45497;-83
2023/12/19 03:58:43;;;;;;;;;21.67;20.00;;;;;;;;5081816;28;45421;-83
2023/12/19 04:01:10;;;;;;;;;24.33;20.33;;;;;;;;5081921;27;45215;-81
2023/12/19 04:03:36;;;;;;;;;20.67;20.00;;;;;;;;5081483;27;46241;-82
2023/12/19 04:06:01;;;;;;;;;22.00;20.67;;;;;;;;5081718;28;45353;-82
2023/12/19 04:08:26;;;;;;;;;24.33;23.33;;;;;;;;5080577;28;45322;-83
2023/12/19 04:10:52;;;;;;;;;26.67;23.67;;;;;;;;5097225;27;46599;-82
2023/12/19 04:13:17;;;;;;;;;25.33;24.00;;;;;;;;5081642;27;46075;-83
2023/12/19 04:15:42;;;;;;;;;23.00;23.00;;;;;;;;5097201;27;45425;-82
2023/12/19 04:18:08;;;;;;;;;27.33;26.00;;;;;;;;5080129;28;45363;-82
2023/12/19 04:20:33;;;;;;;;;18.33;18.33;;;;;;;;5081018;27;45262;-82
2023/12/19 04:22:58;;;;;;;;;24.00;21.67;;;;;;;;5081417;27;45456;-82
2023/12/19 04:25:23;;;;;;;;;22.67;21.00;;;;;;;;5097064;27;45309;-82
2023/12/19 04:27:49;;;;;;;;;23.33;21.33;;;;;;;;5081629;27;45425;-82
2023/12/19 04:30:14;;;;;;;;;22.33;21.67;;;;;;;;5067009;28;46183;-82
2023/12/19 04:32:40;;;;;;;;;23.67;23.00;;;;;;;;5081239;28;45264;-82
2023/12/19 04:35:06;;;;;;;;;25.67;23.00;;;;;;;;5081171;28;45333;-82
2023/12/19 04:37:31;;;;;;;;;24.33;18.67;;;;;;;;5079948;28;45292;-82
2023/12/19 04:39:57;;;;;;;;;22.33;21.33;;;;;;;;5081040;28;45264;-82
2023/12/19 04:42:23;;;;;;;;;23.33;20.67;;;;;;;;5062823;28;48393;-83
2023/12/19 04:44:48;;;;;;;;;26.33;23.33;;;;;;;;5081058;28;45334;-82
2023/12/19 04:47:13;;;;;;;;;28.67;25.67;;;;;;;;5081237;28;45318;-83
2023/12/19 04:49:39;;;;;;;;;20.00;19.00;;;;;;;;5080793;28;45558;-82
2023/12/19 04:52:04;;;;;;;;;19.33;18.33;;;;;;;;5062611;28;48212;-82
2023/12/19 04:54:30;;;;;;;;;25.67;22.33;;;;;;;;5080576;28;45397;-82
2023/12/19 04:56:55;;;;;;;;;25.00;22.33;;;;;;;;5080340;27;45377;-82
2023/12/19 04:59:20;;;;;;;;;21.33;21.33;;;;;;;;5096625;27;47550;-83
2023/12/19 05:01:46;;;;;;;;;19.00;18.67;;;;;;;;5080885;27;45375;-82
2023/12/19 05:04:11;;;;;;;;;22.67;21.00;;;;;;;;5080777;28;45348;-83
2023/12/19 05:06:36;;;;;;;;;22.00;19.67;;;;;;;;5096621;27;45399;-82
2023/12/19 05:09:02;;;;;;;;;28.67;22.33;;;;;;;;5080738;27;45347;-82
2023/12/19 05:11:27;;;;;;;;;25.67;20.00;;;;;;;;5096264;27;47512;-82
2023/12/19 05:13:53;;;;;;;;;29.33;24.67;;;;;;;;5080699;27;45281;-83
2023/12/19 05:16:19;;;;;;;;;24.00;24.00;;;;;;;;5080609;27;45263;-82
2023/12/19 05:18:44;;;;;;;;;20.33;18.67;;;;;;;;5078937;28;46014;-82
2023/12/19 05:21:10;;;;;;;;;31.00;24.33;;;;;;;;5080583;27;45399;-83
2023/12/19 05:23:35;;;;;;;;;29.33;27.67;;;;;;;;5080394;28;45195;-82
2023/12/19 05:26:05;;;;;;;;;22.33;21.00;;;;;;;;5080608;27;45257;-83
2023/12/19 05:28:30;;;;;;;;;17.33;16.00;;;;;;;;5079095;28;46403;-82
2023/12/19 05:30:56;;;;;;;;;22.33;21.00;;;;;;;;5079167;27;46139;-82
2023/12/19 05:33:25;;;;;;;;;22.00;18.33;;;;;;;;5080261;28;45377;-82
2023/12/19 05:35:51;;;;;;;;;25.33;21.67;;;;;;;;5080413;27;45253;-82
2023/12/19 05:38:17;;;;;;;;;22.67;22.00;;;;;;;;5095461;27;46388;-82
2023/12/19 05:40:42;;;;;;;;;18.00;18.00;;;;;;;;5080090;28;45686;-82
2023/12/19 05:43:08;;;;;;;;;24.33;22.00;;;;;;;;5061863;28;45568;-82
2023/12/19 05:45:33;;;;;;;;;21.00;19.33;;;;;;;;5061793;28;45475;-82
2023/12/19 05:47:58;;;;;;;;;21.67;19.00;;;;;;;;5078546;28;47030;-82
2023/12/19 05:50:24;;;;;;;;;22.67;19.00;;;;;;;;5060752;28;47549;-82
2023/12/19 05:52:49;;;;;;;;;21.33;19.67;;;;;;;;5078508;28;45447;-83
2023/12/19 05:55:14;;;;;;;;;21.00;19.33;;;;;;;;5079953;28;45338;-82
2023/12/19 05:57:39;;;;;;;;;20.00;18.33;;;;;;;;5085580;27;45505;-82
2023/12/19 06:00:05;;;;;;;;;26.33;23.33;;;;;;;;5079889;27;45667;-82
2023/12/19 06:02:30;;;;;;;;;28.33;25.67;;;;;;;;5080067;27;45411;-83
2023/12/19 06:04:55;;;;;;;;;22.67;20.67;;;;;;;;5080057;27;45448;-82
2023/12/19 06:07:21;;;;;;;;;21.67;18.67;;;;;;;;5079913;27;45556;-82
2023/12/19 06:09:46;;;;;;;;;21.00;19.33;;;;;;;;5079764;27;45332;-82
2023/12/19 06:12:11;;;;;;;;;21.67;19.00;;;;;;;;5079939;27;45427;-83
2023/12/19 06:14:37;;;;;;;;;21.67;19.33;;;;;;;;5079922;28;45364;-82
2023/12/19 06:17:02;;;;;;;;;17.33;17.33;;;;;;;;5095252;27;46275;-82
2023/12/19 06:19:28;;;;;;;;;21.00;18.67;;;;;;;;5079557;27;45470;-82
2023/12/19 06:21:53;;;;;;;;;17.67;15.67;;;;;;;;5078344;28;45330;-82
2023/12/19 06:24:18;;;;;;;;;24.00;19.33;;;;;;;;5095463;27;45409;-83
2023/12/19 06:26:44;;;;;;;;;22.33;18.00;;;;;;;;5079438;27;45230;-82
2023/12/19 06:29:09;;;;;;;;;24.00;20.67;;;;;;;;5060563;28;47248;-83
2023/12/19 06:31:40;;;;;;;;;23.67;22.00;;;;;;;;5078920;28;45307;-84
2023/12/19 06:34:05;;;;;;;;;21.00;19.67;;;;;;;;5077936;28;45441;-83
2023/12/19 06:36:31;;;;;;;;;27.33;21.67;;;;;;;;5079416;28;45494;-82
2023/12/19 06:38:56;;;;;;;;;23.00;22.33;;;;;;;;5079454;28;45475;-81
2023/12/19 06:41:21;;;;;;;;;24.67;22.00;;;;;;;;5078893;28;45351;-81
2023/12/19 06:43:46;;;;;;;;;21.00;19.33;;;;;;;;5083026;28;45381;-82
2023/12/19 06:46:15;;;;;;;;;21.00;19.67;;;;;;;;5083096;28;45321;-81
2023/12/19 06:48:41;;;;;;;;;27.33;22.00;;;;;;;;5064408;27;47362;-81
2023/12/19 06:51:06;;;;;;;;;22.00;21.67;;;;;;;;5101795;27;45266;-81
2023/12/19 06:53:32;;;;;;;;;22.33;19.00;;;;;;;;5103510;27;45283;-81
2023/12/19 06:55:57;;;;;;;;;24.67;22.00;;;;;;;;5102974;27;45504;-82
2023/12/19 06:58:22;;;;;;;;;29.00;23.33;;;;;;;;5086340;27;45783;-81
2023/12/19 07:00:47;;;;;;;;;20.33;18.67;;;;;;;;5064404;28;45173;-81
2023/12/19 07:03:12;;;;;;;;;25.33;22.33;;;;;;;;5082896;28;45202;-80
2023/12/19 07:05:38;;;;;;;;;17.67;16.67;;;;;;;;5082486;28;45423;-80
2023/12/19 07:08:05;;;;;;;;;26.33;19.33;;;;;;;;5082561;28;46542;-80
2023/12/19 07:10:31;;;;;;;;;28.33;23.00;;;;;;;;5082487;28;45430;-82
2023/12/19 07:12:56;;;;;;;;;29.00;27.67;;;;;;;;5081562;28;45524;-82
2023/12/19 07:15:21;;;;;;;;;24.33;23.33;;;;;;;;5082714;28;45515;-82
2023/12/19 07:17:46;;;;;;;;;27.00;20.00;;;;;;;;5064115;28;47121;-82
2023/12/19 07:20:12;;;;;;;;;24.67;23.00;;;;;;;;5080980;28;46090;-82
2023/12/19 07:22:37;;;;;;;;;21.67;19.67;;;;;;;;5082672;28;45371;-82
2023/12/19 07:25:03;;;;;;;;;20.33;19.00;;;;;;;;5082134;28;45424;-82
2023/12/19 07:27:29;;;;;;;;;20.00;18.33;;;;;;;;5082328;28;46165;-82
2023/12/19 07:29:54;;;;;;;;;23.67;22.67;;;;;;;;5075966;27;45482;-83
2023/12/19 07:32:19;;;;;;;;;23.67;19.67;;;;;;;;5080789;28;45336;-79
2023/12/19 07:34:44;;;;;;;;;29.33;24.00;;;;;;;;5079806;28;45920;-81
2023/12/19 07:37:10;;;;;;;;;20.00;19.33;;;;;;;;5081675;28;46032;-82
2023/12/19 07:39:35;;;;;;;;;28.67;23.33;;;;;;;;5080953;28;45551;-83
2023/12/19 07:42:00;;;;;;;;;23.67;19.67;;;;;;;;5081771;28;45232;-81
2023/12/19 07:44:25;;;;;;;;;18.67;18.67;;;;;;;;5078954;28;45925;-83
2023/12/19 07:46:51;;;;;;;;;20.00;19.67;;;;;;;;5060278;28;47153;-82
2023/12/19 07:49:16;;;;;;;;;24.00;22.00;;;;;;;;5061639;28;45898;-82
2023/12/19 07:51:41;;;;;;;;;20.33;17.67;;;;;;;;5062933;28;45257;-83
2023/12/19 07:54:06;;;;;;;;;30.67;25.00;;;;;;;;5079889;28;45252;-82
2023/12/19 07:56:33;;;;;;;;;19.00;17.33;;;;;;;;5080681;28;47470;-82
2023/12/19 07:58:58;;;;;;;;;20.33;18.00;;;;;;;;5096216;27;46017;-83
2023/12/19 08:01:23;;;;;;;;;20.33;20.33;;;;;;;;5081031;27;45235;-82
2023/12/19 08:03:48;;;;;;;;;23.00;22.00;;;;;;;;5080601;27;45334;-82
2023/12/19 08:06:14;;;;;;;;;24.00;20.33;;;;;;;;5095761;27;47032;-82
2023/12/19 08:08:42;;;;;;;;;18.67;18.67;;;;;;;;5096986;27;45325;-82
2023/12/19 08:11:08;;;;;;;;;23.33;23.33;;;;;;;;5079255;28;45402;-82
2023/12/19 08:13:36;;;;;;;;;19.33;18.33;;;;;;;;5080887;28;45396;-84
2023/12/19 08:16:02;;;;;;;;;19.67;17.33;;;;;;;;5080507;28;46297;-84
2023/12/19 08:18:27;;;;;;;;;23.33;23.00;;;;;;;;5080524;28;45386;-80
2023/12/19 08:20:52;;;;;;;;;21.67;20.00;;;;;;;;5080606;28;45536;-79
2023/12/19 08:23:17;;;;;;;;;16.33;14.67;;;;;;;;5081727;28;45295;-80
2023/12/19 08:25:43;;;;;;;;;24.67;23.00;;;;;;;;5081959;28;45513;-80
2023/12/19 08:28:09;;;;;;;;;21.67;19.33;;;;;;;;5081503;27;45662;-80
2023/12/19 08:30:34;;;;;;;;;25.00;20.67;;;;;;;;5080608;27;45285;-80
2023/12/19 08:32:59;;;;;;;;;18.33;16.33;;;;;;;;5093723;27;46187;-80
2023/12/19 08:35:25;;;;;;;;;23.00;23.00;;;;;;;;5063097;28;48180;-80
2023/12/19 08:37:50;;;;;;;;;25.67;20.00;;;;;;;;5081424;28;45377;-81
2023/12/19 08:40:16;;;;;;;;;18.33;16.33;;;;;;;;5080821;28;45241;-80
2023/12/19 08:42:41;;;;;;;;;26.33;22.00;;;;;;;;5081564;28;45790;-80
2023/12/19 08:45:13;;;;;;;;;21.33;21.33;;;;;;;;5081002;28;46038;-78
2023/12/19 08:47:38;;;;;;;;;26.33;22.67;;;;;;;;5080548;28;45779;-79
2023/12/19 08:50:07;;;;;;;;;23.33;23.33;;;;;;;;5080214;28;45352;-79
2023/12/19 08:52:33;;;;;;;;;20.33;17.67;;;;;;;;5061196;28;46909;-80
2023/12/19 08:54:58;;;;;;;;;20.67;18.67;;;;;;;;5079416;28;46133;-80
2023/12/19 08:57:23;;;;;;;;;25.00;20.67;;;;;;;;5079827;28;45367;-80
2023/12/19 08:59:48;;;;;;;;;18.33;16.33;;;;;;;;5079065;28;45445;-79
2023/12/19 09:02:13;;;;;;;;;17.00;17.00;;;;;;;;5079242;28;45446;-80
2023/12/19 09:04:39;;;;;;;;;20.00;18.33;;;;;;;;5079017;28;45394;-80
2023/12/19 09:07:04;;;;;;;;;19.00;19.00;;;;;;;;5079618;28;45914;-81
2023/12/19 09:09:29;;;;;;;;;21.67;20.00;;;;;;;;5079420;28;45773;-80
2023/12/19 09:11:54;;;;;;;;;20.67;20.00;;;;;;;;5079343;28;45453;-79
2023/12/19 09:14:20;;;;;;;;;20.00;17.33;;;;;;;;5077827;28;47384;-79
2023/12/19 09:16:45;;;;;;;;;24.33;23.67;;;;;;;;5081064;28;45477;-78
2023/12/19 09:19:11;;;;;;;;;31.00;28.67;;;;;;;;5081872;28;45357;-78
2023/12/19 09:21:36;;;;;;;;;26.33;22.67;;;;;;;;5082106;28;45288;-76
2023/12/19 09:24:02;;;;;;;;;24.00;22.00;;;;;;;;5079045;28;46426;-78
2023/12/19 09:26:27;;;;;;;;;21.33;19.67;;;;;;;;5077743;28;45293;-79
2023/12/19 09:28:55;;;;;;;;;23.67;22.33;;;;;;;;5077153;28;45451;-79
2023/12/19 09:31:20;;;;;;;;;24.00;21.00;;;;;;;;5078817;28;45511;-79
2023/12/19 09:33:46;;;;;;;;;26.67;25.33;;;;;;;;5079270;28;45502;-77
2023/12/19 09:36:18;;;;;;;;;20.00;18.00;;;;;;;;5079337;28;45546;-78
2023/12/19 09:38:45;;;;;;;;;22.67;19.67;;;;;;;;5061303;28;45304;-78
2023/12/19 09:41:10;;;;;;;;;17.67;17.67;;;;;;;;5080024;28;45404;-78
2023/12/19 09:43:36;;;;;;;;;24.33;19.00;;;;;;;;5079846;28;46256;-77
2023/12/19 09:46:02;;;;;;;;;23.33;21.00;;;;;;;;5078793;28;45797;-78
2023/12/19 09:48:30;;;;;;;;;24.33;20.67;;;;;;;;5055164;28;45735;-77
2023/12/19 09:50:58;;;;;;;;;26.00;24.00;;;;;;;;5060411;28;47352;-77
2023/12/19 09:53:24;;;;;;;;;20.33;17.67;;;;;;;;5078940;28;45292;-77
2023/12/19 09:55:49;;;;;;;;;26.00;23.33;;;;;;;;5078785;28;45339;-77
2023/12/19 09:58:15;;;;;;;;;25.00;22.00;;;;;;;;5089824;27;45501;-77
2023/12/19 10:00:44;;;;;;;;;22.00;20.00;;;;;;;;5079637;27;45431;-76
2023/12/19 10:03:09;;;;;;;;;24.00;22.00;;;;;;;;5078468;27;46534;-76
2023/12/19 10:05:35;;;;;;;;;29.67;26.00;;;;;;;;5078935;27;45294;-76
2023/12/19 10:08:00;;;;;;;;;26.67;23.33;;;;;;;;5079250;27;45328;-79
2023/12/19 10:10:45;;;;;;;;;28.67;26.67;;;;;;;;5060786;28;47282;-78
2023/12/19 10:13:10;;;;;;;;;21.67;21.33;;;;;;;;5078934;28;46362;-79
2023/12/19 10:15:35;;;;;;;;;24.67;21.67;;;;;;;;5079621;28;45352;-80
2023/12/19 10:18:05;;;;;;;;;22.00;20.33;;;;;;;;5077670;28;45240;-77
2023/12/19 10:20:30;;;;;;;;;22.33;22.00;;;;;;;;5077337;28;47059;-78
2023/12/19 10:23:02;;;;;;;;;22.33;21.67;;;;;;;;5078812;28;46434;-78
2023/12/19 10:25:27;;;;;;;;;23.00;21.00;;;;;;;;5077586;28;45313;-77
2023/12/19 10:28:03;;;;;;;;;18.33;17.00;;;;;;;;5078808;28;45347;-79
2023/12/19 10:30:28;;;;;;;;;17.67;16.67;;;;;;;;5078814;28;45703;-78
2023/12/19 10:32:56;;;;;;;;;16.67;15.00;;;;;;;;5078182;28;46441;-78
2023/12/19 10:35:22;;;;;;;;;17.67;16.67;;;;;;;;5079325;28;45387;-77
2023/12/19 10:37:47;;;;;;;;;20.67;19.33;;;;;;;;5079368;28;45350;-77
2023/12/19 10:40:14;;;;;;;;;17.67;16.67;;;;;;;;5078989;28;45299;-78
2023/12/19 10:42:39;;;;;;;;;20.00;16.67;;;;;;;;5079273;28;45451;-79
2023/12/19 10:45:05;;;;;;;;;15.00;14.00;;;;;;;;5078719;28;45315;-79
2023/12/19 10:47:30;;;;;;;;;16.33;16.33;;;;;;;;5077868;28;45393;-80
2023/12/19 10:49:56;;;;;;;;;19.00;14.00;;;;;;;;5079930;27;46271;-79
2023/12/19 10:52:22;;;;;;;;;18.00;15.33;;;;;;;;5078950;28;45263;-81
2023/12/19 10:54:49;;;;;;;;;14.33;13.33;;;;;;;;5060638;28;45304;-78
2023/12/19 10:57:14;;;;;;;;;18.00;18.00;;;;;;;;5078364;28;45253;-78
2023/12/19 11:00:09;;;;;;;;;19.00;15.00;;;;;;;;5094141;27;45757;-78
2023/12/19 11:02:34;;;;;;;;;17.33;13.33;;;;;;;;5078588;27;46103;-78
2023/12/19 11:05:18;;;;;;;;;10.67;9.00;;;;;;;;5078719;27;45327;-81
2023/12/19 11:07:44;;;;;;;;;18.33;16.00;;;;;;;;5079165;27;45229;-80
2023/12/19 11:10:10;;;;;;;;;17.33;14.33;;;;;;;;5094382;27;46232;-77
2023/12/19 11:12:36;;;;;;;;;18.67;16.33;;;;;;;;5079051;27;46150;-79
2023/12/19 11:15:02;;;;;;;;;18.33;18.00;;;;;;;;5078772;28;45379;-78
2023/12/19 11:17:47;;;;;;;;;18.67;17.00;;;;;;;;5078941;27;45309;-77
2023/12/19 11:20:34;;;;;;;;;14.00;14.00;;;;;;;;5076742;28;45896;-77
2023/12/19 11:23:02;;;;;;;;;13.67;13.33;;;;;;;;5078633;27;45352;-76
2023/12/19 11:25:33;;;;;;;;;18.00;14.33;;;;;;;;5078474;27;45294;-77
2023/12/19 11:28:02;;;;;;;;;17.00;17.00;;;;;;;;5078866;27;45412;-77
2023/12/19 11:30:39;;;;;;;;;19.33;17.33;;;;;;;;5081075;27;45479;-76
2023/12/19 11:33:04;;;;;;;;;13.33;13.00;;;;;;;;5081562;28;46080;-77
2023/12/19 11:35:30;;;;;;;;;16.00;13.33;;;;;;;;5081240;28;45245;-79
2023/12/19 11:38:14;;;;;;;;;13.00;12.67;;;;;;;;5062795;28;45474;-78
2023/12/19 11:40:47;;;;;;;;;14.67;12.33;;;;;;;;5063273;28;46376;-79
2023/12/19 11:43:27;;;;;;;;;18.33;15.67;;;;;;;;5081951;28;45935;-80
2023/12/19 11:45:53;;;;;;;;;15.00;14.67;;;;;;;;5081056;28;45402;-80
2023/12/19 11:48:34;;;;;;;;;25.00;19.00;;;;;;;;5081548;28;45362;-79
2023/12/19 11:50:59;;;;;;;;;16.67;15.67;;;;;;;;5079563;28;46529;-79
2023/12/19 11:53:24;;;;;;;;;13.67;13.67;;;;;;;;5079650;28;48276;-78
2023/12/19 11:55:50;;;;;;;;;17.00;15.00;;;;;;;;5081075;28;45192;-79
2023/12/19 11:58:15;;;;;;;;;18.00;16.00;;;;;;;;5081688;28;45511;-77
2023/12/19 12:00:40;;;;;;;;;22.33;18.67;;;;;;;;5081769;27;45536;-78
2023/12/19 12:03:10;;;;;;;;;19.67;14.33;;;;;;;;5097436;27;46744;-76
2023/12/19 12:05:36;;;;;;;;;19.00;17.67;;;;;;;;5097497;27;46146;-76
2023/12/19 12:08:01;;;;;;;;;16.67;16.33;;;;;;;;5081663;27;45344;-77
2023/12/19 12:10:27;;;;;;;;;19.33;18.67;;;;;;;;5081142;27;46491;-77
2023/12/19 12:13:01;;;;;;;;;15.33;15.33;;;;;;;;5083224;27;47113;-77
2023/12/19 12:15:27;;;;;;;;;21.33;17.33;;;;;;;;5081260;28;45343;-76
2023/12/19 12:18:02;;;;;;;;;7.67;7.00;;;;;;;;5081383;28;45212;-77
2023/12/19 12:20:32;;;;;;;;;18.00;15.00;;;;;;;;5079865;28;46232;-76
2023/12/19 12:22:57;;;;;;;;;18.33;16.67;;;;;;;;5081176;28;46116;-76
2023/12/19 12:25:22;;;;;;;;;19.67;15.00;;;;;;;;5062593;28;45843;-76
2023/12/19 12:27:48;;;;;;;;;13.00;12.33;;;;;;;;5081503;28;45339;-77
2023/12/19 12:30:13;;;;;;;;;15.00;14.00;;;;;;;;5081160;28;45545;-79
2023/12/19 12:32:40;;;;;;;;;17.33;15.33;;;;;;;;5079781;28;47205;-76
2023/12/19 12:35:28;;;;;;;;;18.33;17.33;;;;;;;;5081102;28;45416;-80
2023/12/19 12:37:58;;;;;;;;;21.67;19.67;;;;;;;;5063064;28;45342;-78
2023/12/19 12:40:23;;;;;;;;;22.67;18.00;;;;;;;;5077092;28;45772;-78
2023/12/19 12:42:49;;;;;;;;;17.33;16.00;;;;;;;;5062200;28;47255;-78
2023/12/19 12:45:17;;;;;;;;;15.33;15.00;;;;;;;;5071180;27;45682;-79
2023/12/19 12:47:43;;;;;;;;;15.67;15.67;;;;;;;;5069438;28;45233;-78
2023/12/19 12:50:08;;;;;;;;;13.33;13.33;;;;;;;;5079796;28;45343;-76
2023/12/19 12:52:33;;;;;;;;;17.00;17.00;;;;;;;;5078666;28;45818;-78
2023/12/19 12:54:59;;;;;;;;;12.67;12.33;;;;;;;;5078589;28;45462;-77
2023/12/19 12:57:25;;;;;;;;;17.67;15.00;;;;;;;;5066519;28;45394;-78
2023/12/19 12:59:50;;;;;;;;;19.67;16.33;;;;;;;;5080103;28;45320;-77
2023/12/19 13:02:16;;;;;;;;;15.67;13.67;;;;;;;;5096161;27;47029;-76
2023/12/19 13:04:41;;;;;;;;;15.33;14.33;;;;;;;;5082210;27;45376;-78
2023/12/19 13:07:06;;;;;;;;;20.00;20.00;;;;;;;;5078466;28;45663;-76
2023/12/19 13:09:32;;;;;;;;;13.67;11.33;;;;;;;;5078841;28;45530;-77
2023/12/19 13:12:00;;;;;;;;;13.67;11.67;;;;;;;;5078131;28;47124;-76
2023/12/19 13:14:25;;;;;;;;;14.33;13.00;;;;;;;;5077349;28;45573;-77
2023/12/19 13:16:51;;;;;;;;;15.00;15.00;;;;;;;;5081887;28;45755;-78
2023/12/19 13:19:57;;;;;;;;;;;;;;;;;;;;;
2023/12/19 13:22:56;;;;;;;;;;;;;;;;;;;;;
2023/12/19 13:25:33;;;;;;;;;20.67;17.00;;;;;;;;5077404;28;72778;-78
2023/12/19 13:27:59;;;;;;;;;14.00;12.33;;;;;;;;5075950;28;45437;-79
2023/12/19 13:30:32;;;;;;;;;15.33;13.67;;;;;;;;5079944;28;45292;-77
2023/12/19 13:33:10;;;;;;;;;15.33;13.00;;;;;;;;5079685;28;47136;-77
2023/12/19 13:46:08;;;;;;;;;15.67;14.00;;;;;;;;4940126;28;45624;-76
2023/12/19 14:04:46;;;;;;;;;12.00;12.00;;;;;;;;4866694;29;45569;-80
2023/12/19 14:07:30;;;;;;;;;13.67;13.33;;;;;;;;4933970;28;45564;-79
2023/12/19 14:16:10;;;;;;;;;14.33;13.33;;;;;;;;4957922;28;45486;-77
2023/12/19 14:18:35;;;;;;;;;15.67;12.67;;;;;;;;5014770;28;46425;-77
2023/12/19 14:21:00;;;;;;;;;13.67;13.00;;;;;;;;5036150;28;45332;-78
2023/12/19 14:23:26;;;;;;;;;16.33;14.33;;;;;;;;5030880;28;45288;-79
2023/12/19 14:25:51;;;;;;;;;13.00;12.33;;;;;;;;5037351;28;45824;-77
2023/12/19 14:28:16;;;;;;;;;14.00;14.00;;;;;;;;5044897;28;45321;-77
2023/12/19 14:30:41;;;;;;;;;15.00;14.00;;;;;;;;5044318;28;45494;-77
2023/12/19 14:33:06;;;;;;;;;21.67;19.67;;;;;;;;5042147;28;45272;-78
2023/12/19 14:35:32;;;;;;;;;19.00;17.00;;;;;;;;5024985;28;45564;-79
2023/12/19 14:37:57;;;;;;;;;17.00;11.67;;;;;;;;5036035;28;45546;-79
2023/12/19 14:40:22;;;;;;;;;15.00;14.67;;;;;;;;5037921;28;45310;-78
2023/12/19 14:42:47;;;;;;;;;19.00;17.00;;;;;;;;5036966;28;45866;-78
2023/12/19 14:45:13;;;;;;;;;17.00;15.33;;;;;;;;5040312;28;45540;-78
2023/12/19 14:47:38;;;;;;;;;18.33;16.33;;;;;;;;5057379;28;46214;-78